sensor_id;sensor_type;location;lat;lon;timestamp;P1;durP1;ratioP1;P2;durP2;ratioP2
56297;SDS011;42208;6.376;-10.782;2022-12-15T00:02:08;67.50;;;20.00;;
56297;SDS011;42208;6.376;-10.782;2022-12-15T00:04:36;67.72;;;21.13;;
56297;SDS011;42208;6.376;-10.782;2022-12-15T00:07:04;85.60;;;25.60;;
56297;SDS011;42208;6.376;-10.782;2022-12-15T00:09:32;105.88;;;31.27;;
56297;SDS011;42208;6.376;-10.782;2022-12-15T00:12:00;102.95;;;30.13;;
56297;SDS011;42208;6.376;-10.782;2022-12-15T00:14:29;123.75;;;37.42;;
56297;SDS011;42208;6.376;-10.782;2022-12-15T00:16:57;82.45;;;28.83;;
56297;SDS011;42208;6.376;-10.782;2022-12-15T00:19:26;80.68;;;20.35;;
56297;SDS011;42208;6.376;-10.782;2022-12-15T00:21:54;72.15;;;19.08;;
56297;SDS011;42208;6.376;-10.782;2022-12-15T00:24:22;61.33;;;19.52;;
56297;SDS011;42208;6.376;-10.782;2022-12-15T00:26:50;61.55;;;21.38;;
56297;SDS011;42208;6.376;-10.782;2022-12-15T00:29:19;80.05;;;21.27;;
56297;SDS011;42208;6.376;-10.782;2022-12-15T00:31:47;64.38;;;22.63;;
56297;SDS011;42208;6.376;-10.782;2022-12-15T00:34:15;88.88;;;27.40;;
56297;SDS011;42208;6.376;-10.782;2022-12-15T00:36:43;79.15;;;27.88;;
56297;SDS011;42208;6.376;-10.782;2022-12-15T00:39:15;88.28;;;29.67;;
56297;SDS011;42208;6.376;-10.782;2022-12-15T00:41:43;97.35;;;29.23;;
56297;SDS011;42208;6.376;-10.782;2022-12-15T00:44:11;142.70;;;43.83;;
56297;SDS011;42208;6.376;-10.782;2022-12-15T00:46:46;122.38;;;41.85;;
56297;SDS011;42208;6.376;-10.782;2022-12-15T00:49:14;220.05;;;71.10;;
56297;SDS011;42208;6.376;-10.782;2022-12-15T00:51:42;243.88;;;84.05;;
56297;SDS011;42208;6.376;-10.782;2022-12-15T00:54:11;254.93;;;84.50;;
56297;SDS011;42208;6.376;-10.782;2022-12-15T00:56:44;263.45;;;87.28;;
56297;SDS011;42208;6.376;-10.782;2022-12-15T00:59:12;238.32;;;80.78;;
56297;SDS011;42208;6.376;-10.782;2022-12-15T01:01:41;226.82;;;76.70;;
56297;SDS011;42208;6.376;-10.782;2022-12-15T01:04:15;210.07;;;74.68;;
56297;SDS011;42208;6.376;-10.782;2022-12-15T01:06:49;206.93;;;74.43;;
56297;SDS011;42208;6.376;-10.782;2022-12-15T01:09:17;207.43;;;80.00;;
56297;SDS011;42208;6.376;-10.782;2022-12-15T01:11:45;261.75;;;102.35;;
56297;SDS011;42208;6.376;-10.782;2022-12-15T01:14:13;259.08;;;110.03;;
56297;SDS011;42208;6.376;-10.782;2022-12-15T01:16:41;253.95;;;113.18;;
56297;SDS011;42208;6.376;-10.782;2022-12-15T01:19:10;240.73;;;100.97;;
56297;SDS011;42208;6.376;-10.782;2022-12-15T01:21:38;269.90;;;101.63;;
56297;SDS011;42208;6.376;-10.782;2022-12-15T01:24:07;250.43;;;103.68;;
56297;SDS011;42208;6.376;-10.782;2022-12-15T01:26:35;282.70;;;121.13;;
56297;SDS011;42208;6.376;-10.782;2022-12-15T01:29:03;353.83;;;147.23;;
56297;SDS011;42208;6.376;-10.782;2022-12-15T01:31:31;393.50;;;169.32;;
56297;SDS011;42208;6.376;-10.782;2022-12-15T01:33:59;400.27;;;171.77;;
56297;SDS011;42208;6.376;-10.782;2022-12-15T01:36:27;402.60;;;171.40;;
56297;SDS011;42208;6.376;-10.782;2022-12-15T01:38:55;336.05;;;148.18;;
56297;SDS011;42208;6.376;-10.782;2022-12-15T01:41:23;327.27;;;137.80;;
56297;SDS011;42208;6.376;-10.782;2022-12-15T01:43:52;294.08;;;127.45;;
56297;SDS011;42208;6.376;-10.782;2022-12-15T01:46:20;287.73;;;125.28;;
56297;SDS011;42208;6.376;-10.782;2022-12-15T01:48:53;279.98;;;122.13;;
56297;SDS011;42208;6.376;-10.782;2022-12-15T01:51:33;302.48;;;131.25;;
56297;SDS011;42208;6.376;-10.782;2022-12-15T01:56:47;281.88;;;121.78;;
56297;SDS011;42208;6.376;-10.782;2022-12-15T01:59:26;283.02;;;126.28;;
56297;SDS011;42208;6.376;-10.782;2022-12-15T02:01:59;289.05;;;125.22;;
56297;SDS011;42208;6.376;-10.782;2022-12-15T02:04:28;285.98;;;123.82;;
56297;SDS011;42208;6.376;-10.782;2022-12-15T02:06:58;292.15;;;123.03;;
56297;SDS011;42208;6.376;-10.782;2022-12-15T02:09:26;255.70;;;112.70;;
56297;SDS011;42208;6.376;-10.782;2022-12-15T02:35:49;265.42;;;109.75;;
56297;SDS011;42208;6.376;-10.782;2022-12-15T02:38:35;260.33;;;102.38;;
56297;SDS011;42208;6.376;-10.782;2022-12-15T02:44:20;221.52;;;90.07;;
56297;SDS011;42208;6.376;-10.782;2022-12-15T02:58:26;257.98;;;100.50;;
56297;SDS011;42208;6.376;-10.782;2022-12-15T03:01:09;221.93;;;94.78;;
56297;SDS011;42208;6.376;-10.782;2022-12-15T03:03:49;209.57;;;91.57;;
56297;SDS011;42208;6.376;-10.782;2022-12-15T03:06:18;225.38;;;90.78;;
56297;SDS011;42208;6.376;-10.782;2022-12-15T03:08:47;218.65;;;88.45;;
56297;SDS011;42208;6.376;-10.782;2022-12-15T03:11:15;190.38;;;82.97;;
56297;SDS011;42208;6.376;-10.782;2022-12-15T03:13:43;212.13;;;82.50;;
56297;SDS011;42208;6.376;-10.782;2022-12-15T03:16:15;212.50;;;86.03;;
56297;SDS011;42208;6.376;-10.782;2022-12-15T03:18:44;220.50;;;91.63;;
56297;SDS011;42208;6.376;-10.782;2022-12-15T03:21:12;193.63;;;87.05;;
56297;SDS011;42208;6.376;-10.782;2022-12-15T03:23:40;211.30;;;86.55;;
56297;SDS011;42208;6.376;-10.782;2022-12-15T03:26:08;198.77;;;84.32;;
56297;SDS011;42208;6.376;-10.782;2022-12-15T03:28:37;195.70;;;79.85;;
56297;SDS011;42208;6.376;-10.782;2022-12-15T03:31:05;184.40;;;75.28;;
56297;SDS011;42208;6.376;-10.782;2022-12-15T03:33:33;169.88;;;70.60;;
56297;SDS011;42208;6.376;-10.782;2022-12-15T03:36:01;171.18;;;70.53;;
56297;SDS011;42208;6.376;-10.782;2022-12-15T03:38:30;144.30;;;65.95;;
56297;SDS011;42208;6.376;-10.782;2022-12-15T03:40:58;165.43;;;68.80;;
56297;SDS011;42208;6.376;-10.782;2022-12-15T03:43:26;162.00;;;67.13;;
56297;SDS011;42208;6.376;-10.782;2022-12-15T03:45:55;147.88;;;62.13;;
56297;SDS011;42208;6.376;-10.782;2022-12-15T03:48:23;145.00;;;58.05;;
56297;SDS011;42208;6.376;-10.782;2022-12-15T03:50:51;127.05;;;57.58;;
56297;SDS011;42208;6.376;-10.782;2022-12-15T03:53:19;142.52;;;58.00;;
56297;SDS011;42208;6.376;-10.782;2022-12-15T03:55:47;132.25;;;56.80;;
56297;SDS011;42208;6.376;-10.782;2022-12-15T03:58:16;127.18;;;53.72;;
56297;SDS011;42208;6.376;-10.782;2022-12-15T04:00:44;130.85;;;56.05;;
56297;SDS011;42208;6.376;-10.782;2022-12-15T04:03:12;123.15;;;54.38;;
56297;SDS011;42208;6.376;-10.782;2022-12-15T04:05:40;123.18;;;55.40;;
56297;SDS011;42208;6.376;-10.782;2022-12-15T04:08:09;122.75;;;52.25;;
56297;SDS011;42208;6.376;-10.782;2022-12-15T04:10:37;124.35;;;51.63;;
56297;SDS011;42208;6.376;-10.782;2022-12-15T04:13:06;142.25;;;52.92;;
56297;SDS011;42208;6.376;-10.782;2022-12-15T04:15:36;141.13;;;53.75;;
56297;SDS011;42208;6.376;-10.782;2022-12-15T04:18:07;129.30;;;54.55;;
56297;SDS011;42208;6.376;-10.782;2022-12-15T04:20:37;125.40;;;53.90;;
56297;SDS011;42208;6.376;-10.782;2022-12-15T04:23:06;146.63;;;54.55;;
56297;SDS011;42208;6.376;-10.782;2022-12-15T04:25:35;120.30;;;51.22;;
56297;SDS011;42208;6.376;-10.782;2022-12-15T04:28:04;117.32;;;51.88;;
56297;SDS011;42208;6.376;-10.782;2022-12-15T04:30:32;109.25;;;50.80;;
56297;SDS011;42208;6.376;-10.782;2022-12-15T04:33:01;129.82;;;51.60;;
56297;SDS011;42208;6.376;-10.782;2022-12-15T04:35:31;130.40;;;51.30;;
56297;SDS011;42208;6.376;-10.782;2022-12-15T04:38:00;122.28;;;49.40;;
56297;SDS011;42208;6.376;-10.782;2022-12-15T04:40:30;127.82;;;51.28;;
56297;SDS011;42208;6.376;-10.782;2022-12-15T04:42:58;111.43;;;48.33;;
56297;SDS011;42208;6.376;-10.782;2022-12-15T04:45:26;104.70;;;47.10;;
56297;SDS011;42208;6.376;-10.782;2022-12-15T04:47:54;114.15;;;47.03;;
56297;SDS011;42208;6.376;-10.782;2022-12-15T04:50:23;119.47;;;49.95;;
56297;SDS011;42208;6.376;-10.782;2022-12-15T04:52:51;113.43;;;48.55;;
56297;SDS011;42208;6.376;-10.782;2022-12-15T04:55:20;108.13;;;47.65;;
56297;SDS011;42208;6.376;-10.782;2022-12-15T04:57:48;120.47;;;47.33;;
56297;SDS011;42208;6.376;-10.782;2022-12-15T05:00:16;113.50;;;48.65;;
56297;SDS011;42208;6.376;-10.782;2022-12-15T05:02:46;115.85;;;49.08;;
56297;SDS011;42208;6.376;-10.782;2022-12-15T05:05:15;121.63;;;49.28;;
56297;SDS011;42208;6.376;-10.782;2022-12-15T05:07:44;130.48;;;50.20;;
56297;SDS011;42208;6.376;-10.782;2022-12-15T05:10:12;128.23;;;52.00;;
56297;SDS011;42208;6.376;-10.782;2022-12-15T05:12:41;109.35;;;50.45;;
56297;SDS011;42208;6.376;-10.782;2022-12-15T05:15:10;115.32;;;49.15;;
56297;SDS011;42208;6.376;-10.782;2022-12-15T05:17:39;103.47;;;47.78;;
56297;SDS011;42208;6.376;-10.782;2022-12-15T05:20:07;86.45;;;43.10;;
56297;SDS011;42208;6.376;-10.782;2022-12-15T05:22:36;113.70;;;48.10;;
56297;SDS011;42208;6.376;-10.782;2022-12-15T05:25:04;100.07;;;44.17;;
56297;SDS011;42208;6.376;-10.782;2022-12-15T05:27:33;112.35;;;43.92;;
56297;SDS011;42208;6.376;-10.782;2022-12-15T05:30:01;102.38;;;44.28;;
56297;SDS011;42208;6.376;-10.782;2022-12-15T05:32:30;105.43;;;44.70;;
56297;SDS011;42208;6.376;-10.782;2022-12-15T05:34:59;104.68;;;44.55;;
56297;SDS011;42208;6.376;-10.782;2022-12-15T05:37:28;95.78;;;46.05;;
56297;SDS011;42208;6.376;-10.782;2022-12-15T05:39:56;113.95;;;47.80;;
56297;SDS011;42208;6.376;-10.782;2022-12-15T05:42:24;118.47;;;49.47;;
56297;SDS011;42208;6.376;-10.782;2022-12-15T05:44:52;109.38;;;45.40;;
56297;SDS011;42208;6.376;-10.782;2022-12-15T05:47:21;112.82;;;47.95;;
56297;SDS011;42208;6.376;-10.782;2022-12-15T05:49:49;97.13;;;44.20;;
56297;SDS011;42208;6.376;-10.782;2022-12-15T05:52:17;120.30;;;49.08;;
56297;SDS011;42208;6.376;-10.782;2022-12-15T05:54:45;114.10;;;47.25;;
56297;SDS011;42208;6.376;-10.782;2022-12-15T05:57:14;112.63;;;48.50;;
56297;SDS011;42208;6.376;-10.782;2022-12-15T05:59:42;128.20;;;52.70;;
56297;SDS011;42208;6.376;-10.782;2022-12-15T06:02:10;108.43;;;47.25;;
56297;SDS011;42208;6.376;-10.782;2022-12-15T06:04:40;117.05;;;49.75;;
56297;SDS011;42208;6.376;-10.782;2022-12-15T06:07:08;116.10;;;50.05;;
56297;SDS011;42208;6.376;-10.782;2022-12-15T06:09:36;121.93;;;53.58;;
56297;SDS011;42208;6.376;-10.782;2022-12-15T06:12:04;114.03;;;52.30;;
56297;SDS011;42208;6.376;-10.782;2022-12-15T06:14:33;125.78;;;53.67;;
56297;SDS011;42208;6.376;-10.782;2022-12-15T06:17:02;134.57;;;52.53;;
56297;SDS011;42208;6.376;-10.782;2022-12-15T06:19:30;121.20;;;56.08;;
56297;SDS011;42208;6.376;-10.782;2022-12-15T06:21:58;125.22;;;57.40;;
56297;SDS011;42208;6.376;-10.782;2022-12-15T06:24:26;146.25;;;58.60;;
56297;SDS011;42208;6.376;-10.782;2022-12-15T06:26:54;126.70;;;56.15;;
56297;SDS011;42208;6.376;-10.782;2022-12-15T06:29:23;130.65;;;56.30;;
56297;SDS011;42208;6.376;-10.782;2022-12-15T06:31:51;119.85;;;55.25;;
56297;SDS011;42208;6.376;-10.782;2022-12-15T06:34:19;107.10;;;50.65;;
56297;SDS011;42208;6.376;-10.782;2022-12-15T06:36:48;118.85;;;50.50;;
56297;SDS011;42208;6.376;-10.782;2022-12-15T06:39:16;104.30;;;49.83;;
56297;SDS011;42208;6.376;-10.782;2022-12-15T06:41:44;124.28;;;52.67;;
56297;SDS011;42208;6.376;-10.782;2022-12-15T06:44:13;127.97;;;52.50;;
56297;SDS011;42208;6.376;-10.782;2022-12-15T06:46:42;123.05;;;49.95;;
56297;SDS011;42208;6.376;-10.782;2022-12-15T06:49:11;113.00;;;49.45;;
56297;SDS011;42208;6.376;-10.782;2022-12-15T06:51:39;102.60;;;46.22;;
56297;SDS011;42208;6.376;-10.782;2022-12-15T06:54:08;116.70;;;49.63;;
56297;SDS011;42208;6.376;-10.782;2022-12-15T06:56:36;115.18;;;51.30;;
56297;SDS011;42208;6.376;-10.782;2022-12-15T06:59:05;115.80;;;50.42;;
56297;SDS011;42208;6.376;-10.782;2022-12-15T07:01:34;109.72;;;47.00;;
56297;SDS011;42208;6.376;-10.782;2022-12-15T07:04:03;99.45;;;46.42;;
56297;SDS011;42208;6.376;-10.782;2022-12-15T07:06:33;108.22;;;47.13;;
56297;SDS011;42208;6.376;-10.782;2022-12-15T07:09:04;106.35;;;45.92;;
56297;SDS011;42208;6.376;-10.782;2022-12-15T07:11:35;101.38;;;46.05;;
56297;SDS011;42208;6.376;-10.782;2022-12-15T07:14:03;111.68;;;47.50;;
56297;SDS011;42208;6.376;-10.782;2022-12-15T07:16:31;105.50;;;47.50;;
56297;SDS011;42208;6.376;-10.782;2022-12-15T07:19:00;103.15;;;46.70;;
56297;SDS011;42208;6.376;-10.782;2022-12-15T07:21:28;102.35;;;46.28;;
56297;SDS011;42208;6.376;-10.782;2022-12-15T07:23:56;95.30;;;44.63;;
56297;SDS011;42208;6.376;-10.782;2022-12-15T07:26:27;95.10;;;44.15;;
56297;SDS011;42208;6.376;-10.782;2022-12-15T07:28:55;101.50;;;44.88;;
56297;SDS011;42208;6.376;-10.782;2022-12-15T07:31:24;105.03;;;42.83;;
56297;SDS011;42208;6.376;-10.782;2022-12-15T07:33:52;93.65;;;40.72;;
56297;SDS011;42208;6.376;-10.782;2022-12-15T07:36:20;97.97;;;42.08;;
56297;SDS011;42208;6.376;-10.782;2022-12-15T07:38:49;113.45;;;46.15;;
56297;SDS011;42208;6.376;-10.782;2022-12-15T07:41:18;105.25;;;45.42;;
56297;SDS011;42208;6.376;-10.782;2022-12-15T07:43:47;97.85;;;44.97;;
56297;SDS011;42208;6.376;-10.782;2022-12-15T07:46:16;106.25;;;45.45;;
56297;SDS011;42208;6.376;-10.782;2022-12-15T07:48:45;108.38;;;44.10;;
56297;SDS011;42208;6.376;-10.782;2022-12-15T07:51:17;92.97;;;42.47;;
56297;SDS011;42208;6.376;-10.782;2022-12-15T07:53:47;107.43;;;44.75;;
56297;SDS011;42208;6.376;-10.782;2022-12-15T07:56:17;93.88;;;42.42;;
56297;SDS011;42208;6.376;-10.782;2022-12-15T07:58:47;91.03;;;39.22;;
56297;SDS011;42208;6.376;-10.782;2022-12-15T08:01:15;87.05;;;36.47;;
56297;SDS011;42208;6.376;-10.782;2022-12-15T08:03:44;78.55;;;33.75;;
56297;SDS011;42208;6.376;-10.782;2022-12-15T08:06:13;83.90;;;34.25;;
56297;SDS011;42208;6.376;-10.782;2022-12-15T08:08:42;82.05;;;33.20;;
56297;SDS011;42208;6.376;-10.782;2022-12-15T08:11:17;82.97;;;30.45;;
56297;SDS011;42208;6.376;-10.782;2022-12-15T08:13:48;83.90;;;29.63;;
56297;SDS011;42208;6.376;-10.782;2022-12-15T08:16:37;81.72;;;32.88;;
56297;SDS011;42208;6.376;-10.782;2022-12-15T08:19:06;72.20;;;32.45;;
56297;SDS011;42208;6.376;-10.782;2022-12-15T08:21:39;86.13;;;33.50;;
56297;SDS011;42208;6.376;-10.782;2022-12-15T08:24:09;97.25;;;34.33;;
56297;SDS011;42208;6.376;-10.782;2022-12-15T08:26:37;78.93;;;32.60;;
56297;SDS011;42208;6.376;-10.782;2022-12-15T08:29:06;84.55;;;33.03;;
56297;SDS011;42208;6.376;-10.782;2022-12-15T08:31:57;83.35;;;31.10;;
56297;SDS011;42208;6.376;-10.782;2022-12-15T08:34:26;78.90;;;29.20;;
56297;SDS011;42208;6.376;-10.782;2022-12-15T08:36:54;72.30;;;28.15;;
56297;SDS011;42208;6.376;-10.782;2022-12-15T08:39:22;64.40;;;25.40;;
56297;SDS011;42208;6.376;-10.782;2022-12-15T08:41:52;80.28;;;26.15;;
56297;SDS011;42208;6.376;-10.782;2022-12-15T08:44:22;71.80;;;28.20;;
56297;SDS011;42208;6.376;-10.782;2022-12-15T08:46:50;72.18;;;28.45;;
56297;SDS011;42208;6.376;-10.782;2022-12-15T08:49:18;81.13;;;28.38;;
56297;SDS011;42208;6.376;-10.782;2022-12-15T08:51:48;69.35;;;27.45;;
56297;SDS011;42208;6.376;-10.782;2022-12-15T08:54:17;68.45;;;25.65;;
56297;SDS011;42208;6.376;-10.782;2022-12-15T08:56:45;72.30;;;26.05;;
56297;SDS011;42208;6.376;-10.782;2022-12-15T08:59:14;67.65;;;23.63;;
56297;SDS011;42208;6.376;-10.782;2022-12-15T09:01:45;107.80;;;25.83;;
56297;SDS011;42208;6.376;-10.782;2022-12-15T09:04:14;56.33;;;24.52;;
56297;SDS011;42208;6.376;-10.782;2022-12-15T09:06:43;71.97;;;25.10;;
56297;SDS011;42208;6.376;-10.782;2022-12-15T09:09:16;75.57;;;25.55;;
56297;SDS011;42208;6.376;-10.782;2022-12-15T09:11:45;80.25;;;24.55;;
56297;SDS011;42208;6.376;-10.782;2022-12-15T09:14:13;84.68;;;28.92;;
56297;SDS011;42208;6.376;-10.782;2022-12-15T09:16:42;88.90;;;28.65;;
56297;SDS011;42208;6.376;-10.782;2022-12-15T09:19:10;74.28;;;26.17;;
56297;SDS011;42208;6.376;-10.782;2022-12-15T09:21:39;80.35;;;29.50;;
56297;SDS011;42208;6.376;-10.782;2022-12-15T09:24:09;99.75;;;28.55;;
56297;SDS011;42208;6.376;-10.782;2022-12-15T09:26:51;94.97;;;29.25;;
56297;SDS011;42208;6.376;-10.782;2022-12-15T09:29:20;76.93;;;30.38;;
56297;SDS011;42208;6.376;-10.782;2022-12-15T09:31:48;94.63;;;32.20;;
56297;SDS011;42208;6.376;-10.782;2022-12-15T09:34:16;81.70;;;29.05;;
56297;SDS011;42208;6.376;-10.782;2022-12-15T09:36:44;82.40;;;29.52;;
56297;SDS011;42208;6.376;-10.782;2022-12-15T09:39:12;101.55;;;32.25;;
56297;SDS011;42208;6.376;-10.782;2022-12-15T09:41:41;112.40;;;32.13;;
56297;SDS011;42208;6.376;-10.782;2022-12-15T09:44:20;104.57;;;32.13;;
56297;SDS011;42208;6.376;-10.782;2022-12-15T09:52:34;84.88;;;26.42;;
56297;SDS011;42208;6.376;-10.782;2022-12-15T09:55:23;76.13;;;22.05;;
56297;SDS011;42208;6.376;-10.782;2022-12-15T10:01:29;75.95;;;20.67;;
56297;SDS011;42208;6.376;-10.782;2022-12-15T10:07:27;77.20;;;21.65;;
56297;SDS011;42208;6.376;-10.782;2022-12-15T10:13:03;68.55;;;21.20;;
56297;SDS011;42208;6.376;-10.782;2022-12-15T10:15:40;60.55;;;18.40;;
56297;SDS011;42208;6.376;-10.782;2022-12-15T10:18:21;76.70;;;18.77;;
56297;SDS011;42208;6.376;-10.782;2022-12-15T10:20:53;91.28;;;22.27;;
56297;SDS011;42208;6.376;-10.782;2022-12-15T10:23:23;78.97;;;19.25;;
56297;SDS011;42208;6.376;-10.782;2022-12-15T10:26:00;76.95;;;17.02;;
56297;SDS011;42208;6.376;-10.782;2022-12-15T10:29:11;86.10;;;18.77;;
56297;SDS011;42208;6.376;-10.782;2022-12-15T10:31:53;63.67;;;16.73;;
56297;SDS011;42208;6.376;-10.782;2022-12-15T10:34:37;58.15;;;15.80;;
56297;SDS011;42208;6.376;-10.782;2022-12-15T10:37:12;58.45;;;14.88;;
56297;SDS011;42208;6.376;-10.782;2022-12-15T10:39:46;64.22;;;19.58;;
56297;SDS011;42208;6.376;-10.782;2022-12-15T10:44:46;69.72;;;18.83;;
56297;SDS011;42208;6.376;-10.782;2022-12-15T10:47:21;59.90;;;16.42;;
56297;SDS011;42208;6.376;-10.782;2022-12-15T10:49:51;76.05;;;18.95;;
56297;SDS011;42208;6.376;-10.782;2022-12-15T10:55:00;66.35;;;16.85;;
56297;SDS011;42208;6.376;-10.782;2022-12-15T10:57:58;84.53;;;22.73;;
56297;SDS011;42208;6.376;-10.782;2022-12-15T11:00:29;54.90;;;17.63;;
56297;SDS011;42208;6.376;-10.782;2022-12-15T11:02:59;57.22;;;15.85;;
56297;SDS011;42208;6.376;-10.782;2022-12-15T11:05:27;74.40;;;18.13;;
56297;SDS011;42208;6.376;-10.782;2022-12-15T11:08:15;90.75;;;35.70;;
56297;SDS011;42208;6.376;-10.782;2022-12-15T11:10:56;124.43;;;55.35;;
56297;SDS011;42208;6.376;-10.782;2022-12-15T11:13:25;138.38;;;64.32;;
56297;SDS011;42208;6.376;-10.782;2022-12-15T11:16:21;59.63;;;17.85;;
56297;SDS011;42208;6.376;-10.782;2022-12-15T11:18:50;118.10;;;45.40;;
56297;SDS011;42208;6.376;-10.782;2022-12-15T11:21:35;82.03;;;21.20;;
56297;SDS011;42208;6.376;-10.782;2022-12-15T11:24:15;105.93;;;31.45;;
56297;SDS011;42208;6.376;-10.782;2022-12-15T11:26:54;87.95;;;17.40;;
56297;SDS011;42208;6.376;-10.782;2022-12-15T11:32:17;69.07;;;17.02;;
56297;SDS011;42208;6.376;-10.782;2022-12-15T11:34:50;70.38;;;17.63;;
56297;SDS011;42208;6.376;-10.782;2022-12-15T11:37:29;66.78;;;16.52;;
56297;SDS011;42208;6.376;-10.782;2022-12-15T12:13:34;62.90;;;17.75;;
56297;SDS011;42208;6.376;-10.782;2022-12-15T12:18:43;68.78;;;16.70;;
56297;SDS011;42208;6.376;-10.782;2022-12-15T12:21:19;52.05;;;16.23;;
56297;SDS011;42208;6.376;-10.782;2022-12-15T12:29:25;70.97;;;18.42;;
56297;SDS011;42208;6.376;-10.782;2022-12-15T12:32:13;66.00;;;17.42;;
56297;SDS011;42208;6.376;-10.782;2022-12-15T12:40:57;67.50;;;18.02;;
56297;SDS011;42208;6.376;-10.782;2022-12-15T12:43:53;50.97;;;15.25;;
56297;SDS011;42208;6.376;-10.782;2022-12-15T12:46:35;53.38;;;14.00;;
56297;SDS011;42208;6.376;-10.782;2022-12-15T12:49:16;77.75;;;18.20;;
56297;SDS011;42208;6.376;-10.782;2022-12-15T12:51:55;70.60;;;15.07;;
56297;SDS011;42208;6.376;-10.782;2022-12-15T12:57:01;65.68;;;14.13;;
56297;SDS011;42208;6.376;-10.782;2022-12-15T13:10:42;83.07;;;21.30;;
56297;SDS011;42208;6.376;-10.782;2022-12-15T13:19:21;64.82;;;14.27;;
56297;SDS011;42208;6.376;-10.782;2022-12-15T13:29:52;68.75;;;18.45;;
56297;SDS011;42208;6.376;-10.782;2022-12-15T13:32:34;69.43;;;16.42;;
56297;SDS011;42208;6.376;-10.782;2022-12-15T13:37:54;54.25;;;14.95;;
56297;SDS011;42208;6.376;-10.782;2022-12-15T13:40:31;69.38;;;15.73;;
56297;SDS011;42208;6.376;-10.782;2022-12-15T13:45:55;55.38;;;16.67;;
56297;SDS011;42208;6.376;-10.782;2022-12-15T13:48:40;65.18;;;15.82;;
56297;SDS011;42208;6.376;-10.782;2022-12-15T14:02:19;62.40;;;15.77;;
56297;SDS011;42208;6.376;-10.782;2022-12-15T14:05:12;58.78;;;14.20;;
56297;SDS011;42208;6.376;-10.782;2022-12-15T14:07:44;69.22;;;17.60;;
56297;SDS011;42208;6.376;-10.782;2022-12-15T14:10:24;66.72;;;17.65;;
56297;SDS011;42208;6.376;-10.782;2022-12-15T14:13:22;64.78;;;16.48;;
56297;SDS011;42208;6.376;-10.782;2022-12-15T14:15:54;53.22;;;15.57;;
56297;SDS011;42208;6.376;-10.782;2022-12-15T14:18:29;62.53;;;15.00;;
56297;SDS011;42208;6.376;-10.782;2022-12-15T14:21:00;57.78;;;14.93;;
56297;SDS011;42208;6.376;-10.782;2022-12-15T14:23:39;71.45;;;17.02;;
56297;SDS011;42208;6.376;-10.782;2022-12-15T14:26:30;53.67;;;15.43;;
56297;SDS011;42208;6.376;-10.782;2022-12-15T14:28:59;81.97;;;15.73;;
56297;SDS011;42208;6.376;-10.782;2022-12-15T14:31:29;61.33;;;15.40;;
56297;SDS011;42208;6.376;-10.782;2022-12-15T14:36:29;62.27;;;17.60;;
56297;SDS011;42208;6.376;-10.782;2022-12-15T14:39:03;52.88;;;15.43;;
56297;SDS011;42208;6.376;-10.782;2022-12-15T14:41:37;71.28;;;17.40;;
56297;SDS011;42208;6.376;-10.782;2022-12-15T14:44:16;64.47;;;15.52;;
56297;SDS011;42208;6.376;-10.782;2022-12-15T14:47:07;70.35;;;15.98;;
56297;SDS011;42208;6.376;-10.782;2022-12-15T14:49:46;71.05;;;19.98;;
56297;SDS011;42208;6.376;-10.782;2022-12-15T14:52:27;67.43;;;14.75;;
56297;SDS011;42208;6.376;-10.782;2022-12-15T14:57:54;58.50;;;14.82;;
56297;SDS011;42208;6.376;-10.782;2022-12-15T15:00:27;69.05;;;16.05;;
56297;SDS011;42208;6.376;-10.782;2022-12-15T15:05:45;63.03;;;13.88;;
56297;SDS011;42208;6.376;-10.782;2022-12-15T15:08:34;70.80;;;16.45;;
56297;SDS011;42208;6.376;-10.782;2022-12-15T15:11:26;60.40;;;14.10;;
56297;SDS011;42208;6.376;-10.782;2022-12-15T15:14:10;65.55;;;16.35;;
56297;SDS011;42208;6.376;-10.782;2022-12-15T15:19:30;64.50;;;14.35;;
56297;SDS011;42208;6.376;-10.782;2022-12-15T15:22:05;63.88;;;13.85;;
56297;SDS011;42208;6.376;-10.782;2022-12-15T15:24:51;64.35;;;15.07;;
56297;SDS011;42208;6.376;-10.782;2022-12-15T15:30:13;63.60;;;13.50;;
56297;SDS011;42208;6.376;-10.782;2022-12-15T15:32:53;66.68;;;17.10;;
56297;SDS011;42208;6.376;-10.782;2022-12-15T15:35:22;62.95;;;14.35;;
56297;SDS011;42208;6.376;-10.782;2022-12-15T15:38:00;55.63;;;13.63;;
56297;SDS011;42208;6.376;-10.782;2022-12-15T15:40:31;61.00;;;16.00;;
56297;SDS011;42208;6.376;-10.782;2022-12-15T15:42:59;65.43;;;17.52;;
56297;SDS011;42208;6.376;-10.782;2022-12-15T15:45:28;75.45;;;15.18;;
56297;SDS011;42208;6.376;-10.782;2022-12-15T15:47:57;66.43;;;14.93;;
56297;SDS011;42208;6.376;-10.782;2022-12-15T15:50:26;55.80;;;14.88;;
56297;SDS011;42208;6.376;-10.782;2022-12-15T15:52:55;53.85;;;13.73;;
56297;SDS011;42208;6.376;-10.782;2022-12-15T15:55:26;68.13;;;14.93;;
56297;SDS011;42208;6.376;-10.782;2022-12-15T15:58:07;61.28;;;16.45;;
56297;SDS011;42208;6.376;-10.782;2022-12-15T16:00:39;69.57;;;17.13;;
56297;SDS011;42208;6.376;-10.782;2022-12-15T16:03:07;68.70;;;18.77;;
56297;SDS011;42208;6.376;-10.782;2022-12-15T16:05:36;75.30;;;21.42;;
56297;SDS011;42208;6.376;-10.782;2022-12-15T16:08:06;67.90;;;17.83;;
56297;SDS011;42208;6.376;-10.782;2022-12-15T16:10:36;60.03;;;14.85;;
56297;SDS011;42208;6.376;-10.782;2022-12-15T16:13:04;57.97;;;15.50;;
56297;SDS011;42208;6.376;-10.782;2022-12-15T16:15:32;71.85;;;15.23;;
56297;SDS011;42208;6.376;-10.782;2022-12-15T16:18:00;58.40;;;15.93;;
56297;SDS011;42208;6.376;-10.782;2022-12-15T16:20:29;62.28;;;15.07;;
56297;SDS011;42208;6.376;-10.782;2022-12-15T16:23:01;55.63;;;14.02;;
56297;SDS011;42208;6.376;-10.782;2022-12-15T16:25:34;53.53;;;14.93;;
56297;SDS011;42208;6.376;-10.782;2022-12-15T16:28:17;89.82;;;17.60;;
56297;SDS011;42208;6.376;-10.782;2022-12-15T16:30:46;65.55;;;16.00;;
56297;SDS011;42208;6.376;-10.782;2022-12-15T16:33:16;60.08;;;18.05;;
56297;SDS011;42208;6.376;-10.782;2022-12-15T16:35:44;60.25;;;15.52;;
56297;SDS011;42208;6.376;-10.782;2022-12-15T16:38:30;57.58;;;17.27;;
56297;SDS011;42208;6.376;-10.782;2022-12-15T16:41:03;79.43;;;17.65;;
56297;SDS011;42208;6.376;-10.782;2022-12-15T16:43:34;59.65;;;13.90;;
56297;SDS011;42208;6.376;-10.782;2022-12-15T16:46:09;66.53;;;15.15;;
56297;SDS011;42208;6.376;-10.782;2022-12-15T16:48:39;71.82;;;16.23;;
56297;SDS011;42208;6.376;-10.782;2022-12-15T16:51:11;67.85;;;16.17;;
56297;SDS011;42208;6.376;-10.782;2022-12-15T16:54:01;69.70;;;17.95;;
56297;SDS011;42208;6.376;-10.782;2022-12-15T16:56:29;49.22;;;14.73;;
56297;SDS011;42208;6.376;-10.782;2022-12-15T16:58:57;62.38;;;16.08;;
56297;SDS011;42208;6.376;-10.782;2022-12-15T17:01:46;80.40;;;16.98;;
56297;SDS011;42208;6.376;-10.782;2022-12-15T17:04:14;60.25;;;17.50;;
56297;SDS011;42208;6.376;-10.782;2022-12-15T17:06:43;55.92;;;14.80;;
56297;SDS011;42208;6.376;-10.782;2022-12-15T17:09:16;68.65;;;16.27;;
56297;SDS011;42208;6.376;-10.782;2022-12-15T17:11:48;71.55;;;17.67;;
56297;SDS011;42208;6.376;-10.782;2022-12-15T17:14:17;66.93;;;20.52;;
56297;SDS011;42208;6.376;-10.782;2022-12-15T17:16:45;62.40;;;20.00;;
56297;SDS011;42208;6.376;-10.782;2022-12-15T17:19:13;63.38;;;17.00;;